Time;durP1;ratioP1;P1;durP2;ratioP2;P2;SDS_P1;SDS_P2;PMS_P1;PMS_P2;Temp;Humidity;BMP_temperature;BMP_pressure;BME280_temperature;BME280_humidity;BME280_pressure;Samples;Min_cycle;Max_cycle;Signal;HPM_P1;HPM_P2
2022/05/25 00:01:09;;;;;;;10.90;7.63;;;15.60;71.60;;;;;;4953315;28;95980;-45
2022/05/25 00:03:39;;;;;;;7.95;7.13;;;15.70;71.60;;;;;;4959248;28;95884;-45
2022/05/25 00:06:11;;;;;;;8.80;7.22;;;15.70;71.60;;;;;;4960026;28;95301;-45
2022/05/25 00:08:44;;;;;;;;;;;15.70;71.60;;;;;;4959033;28;95849;-45
2022/05/25 00:11:14;;;;;;;9.55;6.90;;;15.70;71.60;;;;;;4959038;28;96564;-45
2022/05/25 00:13:46;;;;;;;12.25;8.50;;;15.70;71.50;;;;;;4963676;28;95966;-44
2022/05/25 00:16:17;;;;;;;10.77;7.53;;;15.70;71.50;;;;;;4958001;28;97665;-46
2022/05/25 00:21:43;;;;;;;10.18;7.63;;;15.70;71.60;;;;;;4966093;28;95798;-45
2022/05/25 00:24:17;;;;;;;10.57;7.75;;;15.70;72.30;;;;;;4965680;28;95989;-50
2022/05/25 00:26:48;;;;;;;11.10;7.22;;;15.70;71.60;;;;;;4967149;28;95733;-47
2022/05/25 00:29:19;;;;;;;7.47;6.63;;;15.70;71.60;;;;;;4950625;28;95913;-45
2022/05/25 00:31:50;;;;;;;10.38;7.57;;;15.80;71.70;;;;;;4963071;28;95752;-45
2022/05/25 00:34:25;;;;;;;8.93;7.45;;;15.80;71.50;;;;;;4967548;28;96609;-46
2022/05/25 00:36:55;;;;;;;11.15;7.90;;;15.70;71.20;;;;;;4964123;28;98113;-49
2022/05/25 00:39:25;;;;;;;10.25;7.45;;;15.70;71.40;;;;;;4968228;28;97243;-45
2022/05/25 00:41:56;;;;;;;12.40;8.23;;;15.80;69.40;;;;;;4960406;28;95764;-47
2022/05/25 00:44:28;;;;;;;11.68;7.35;;;15.70;71.70;;;;;;4963857;28;95922;-45
2022/05/25 00:47:00;;;;;;;12.45;8.10;;;15.80;71.80;;;;;;4953149;28;95317;-48
2022/05/25 00:49:34;;;;;;;9.10;7.38;;;15.70;71.80;;;;;;4965857;28;95781;-45
2022/05/25 00:52:07;;;;;;;10.55;8.77;;;15.80;71.80;;;;;;4969675;28;95319;-46
2022/05/25 00:54:44;;;;;;;10.98;8.07;;;15.80;71.90;;;;;;4968401;28;95989;-46
2022/05/25 00:57:25;;;;;;;9.15;7.88;;;15.80;71.90;;;;;;4967838;28;95950;-47
2022/05/25 01:00:16;;;;;;;10.25;7.80;;;15.80;71.90;;;;;;4965373;28;95392;-46
2022/05/25 01:03:08;;;;;;;9.88;8.07;;;15.80;71.90;;;;;;4968572;28;95892;-46
2022/05/25 01:06:08;;;;;;;9.43;7.93;;;15.90;72.00;;;;;;4961919;28;95936;-46
2022/05/25 01:09:18;;;;;;;9.63;7.55;;;15.80;72.00;;;;;;4966275;28;98400;-46
2022/05/25 01:11:58;;;;;;;9.50;7.10;;;15.90;72.10;;;;;;4923551;28;95582;-46
2022/05/25 01:14:42;;;;;;;11.18;8.05;;;15.90;72.10;;;;;;4928264;28;98344;-45
2022/05/25 01:17:48;;;;;;;8.18;6.53;;;15.80;72.10;;;;;;4944757;28;96167;-47
2022/05/25 01:20:41;;;;;;;8.00;6.97;;;15.80;72.20;;;;;;4967029;28;95969;-46
2022/05/25 01:23:31;;;;;;;8.98;6.75;;;15.80;72.20;;;;;;4967158;28;95636;-45
2022/05/25 01:26:38;;;;;;;9.43;7.15;;;15.90;72.20;;;;;;4967146;28;95751;-48
2022/05/25 01:29:28;;;;;;;8.25;7.10;;;15.90;72.20;;;;;;4965849;28;96603;-45
2022/05/25 01:32:22;;;;;;;8.05;6.80;;;15.90;72.20;;;;;;4963021;28;95770;-45
2022/05/25 01:35:19;;;;;;;8.18;6.82;;;15.90;72.30;;;;;;4969063;28;95748;-45
2022/05/25 01:37:59;;;;;;;7.68;6.70;;;15.90;72.00;;;;;;4963135;28;95391;-45
2022/05/25 01:40:51;;;;;;;8.40;6.10;;;15.90;72.10;;;;;;4966435;28;95988;-45
2022/05/25 01:43:24;;;;;;;6.97;6.20;;;15.90;72.20;;;;;;4968620;28;97045;-47
2022/05/25 01:46:31;;;;;;;7.00;6.28;;;15.90;72.20;;;;;;4963679;28;98633;-47
2022/05/25 01:49:08;;;;;;;7.65;5.65;;;15.90;72.20;;;;;;4963352;28;96297;-46
2022/05/25 01:51:54;;;;;;;7.65;6.60;;;15.90;72.20;;;;;;4971772;28;96083;-47
2022/05/25 01:54:32;;;;;;;6.50;5.78;;;16.00;72.30;;;;;;4979728;28;96387;-47
2022/05/25 01:57:12;;;;;;;6.57;5.80;;;16.00;70.00;;;;;;4980392;28;94824;-46
2022/05/25 01:59:46;;;;;;;6.28;5.18;;;16.00;72.30;;;;;;4945535;28;95306;-46
2022/05/25 02:05:16;;;;;;;7.20;5.65;;;16.10;72.30;;;;;;4979621;28;95775;-46
2022/05/25 02:07:47;;;;;;;6.28;5.53;;;16.10;72.30;;;;;;4979297;28;94978;-46
2022/05/25 02:10:31;;;;;;;6.43;5.80;;;16.10;72.30;;;;;;4979479;28;95171;-46
2022/05/25 02:13:30;;;;;;;6.35;5.53;;;16.10;72.30;;;;;;4978916;28;95415;-46
2022/05/25 02:16:41;;;;;;;6.32;5.65;;;16.20;72.30;;;;;;4978780;28;95248;-46
2022/05/25 02:19:26;;;;;;;7.65;5.38;;;16.20;72.30;;;;;;4979215;28;94950;-48
2022/05/25 02:22:23;;;;;;;6.50;5.45;;;16.20;72.40;;;;;;4979169;28;95474;-45
2022/05/25 02:25:20;;;;;;;6.20;5.00;;;16.20;72.30;;;;;;4978802;28;95878;-54
2022/05/25 02:28:12;;;;;;;6.53;5.55;;;16.30;72.40;;;;;;4978373;28;95256;-59
2022/05/25 02:30:47;;;;;;;;;;;16.30;72.40;;;;;;4978892;28;94869;-60
2022/05/25 02:33:24;;;;;;;7.72;5.00;;;16.40;72.50;;;;;;4962464;28;95389;-60
2022/05/25 02:35:59;;;;;;;6.60;4.68;;;16.40;72.40;;;;;;4978642;28;96441;-61
2022/05/25 02:38:31;;;;;;;5.63;4.45;;;16.50;72.10;;;;;;4978590;28;95823;-61
2022/05/25 02:41:07;;;;;;;5.47;4.53;;;16.60;71.60;;;;;;4978899;28;95042;-61
2022/05/25 02:43:40;;;;;;;4.35;3.95;;;16.70;71.10;;;;;;4978954;28;95164;-61
2022/05/25 02:46:12;;;;;;;5.15;4.18;;;16.70;71.00;;;;;;4979700;28;96021;-61
2022/05/25 02:48:45;;;;;;;5.05;4.00;;;16.70;71.10;;;;;;4979454;28;95223;-61
2022/05/25 02:51:20;;;;;;;5.05;3.85;;;16.80;71.00;;;;;;4979268;28;94950;-61
2022/05/25 02:53:52;;;;;;;5.00;4.40;;;16.80;70.80;;;;;;4979833;28;95180;-61
2022/05/25 02:56:24;;;;;;;7.47;4.43;;;16.80;71.10;;;;;;4979222;28;96350;-60
2022/05/25 02:58:56;;;;;;;5.95;4.78;;;16.90;71.30;;;;;;4978752;28;95357;-61
2022/05/25 03:01:26;;;;;;;;;;;16.90;71.50;;;;;;4979452;28;94975;-61
2022/05/25 03:03:58;;;;;;;5.25;4.43;;;16.90;71.10;;;;;;4963523;28;95137;-60
2022/05/25 03:06:31;;;;;;;5.30;4.20;;;17.00;71.30;;;;;;4978222;28;95899;-60
2022/05/25 03:09:04;;;;;;;5.10;4.38;;;17.00;71.10;;;;;;4961000;28;95789;-60
2022/05/25 03:11:37;;;;;;;6.47;4.50;;;17.00;71.20;;;;;;4977661;28;94911;-59
2022/05/25 03:14:09;;;;;;;5.40;4.30;;;17.10;71.30;;;;;;4978654;28;95189;-59
2022/05/25 03:16:40;;;;;;;5.60;4.55;;;17.10;71.40;;;;;;4976398;28;95834;-60
2022/05/25 03:19:13;;;;;;;4.65;4.00;;;17.20;71.30;;;;;;4977852;28;95896;-60
2022/05/25 03:21:45;;;;;;;5.70;3.83;;;17.20;71.40;;;;;;4977941;28;95105;-59
2022/05/25 03:24:17;;;;;;;5.22;4.28;;;17.20;71.30;;;;;;4978530;28;95105;-59
2022/05/25 03:26:51;;;;;;;6.82;4.03;;;17.30;71.20;;;;;;4977587;28;96062;-59
2022/05/25 03:29:24;;;;;;;6.18;4.00;;;17.30;71.00;;;;;;4978379;28;95412;-58
2022/05/25 03:31:56;;;;;;;6.15;4.25;;;17.30;71.10;;;;;;4977076;28;95041;-58
2022/05/25 03:34:26;;;;;;;;;;;17.40;71.90;;;;;;4978837;28;95169;-59
2022/05/25 03:36:58;;;;;;;5.38;3.92;;;17.30;72.20;;;;;;4979370;28;95999;-58
2022/05/25 03:39:32;;;;;;;7.07;4.70;;;17.40;72.40;;;;;;4978053;28;95050;-58
2022/05/25 03:42:07;;;;;;;4.40;4.00;;;17.30;72.30;;;;;;4978049;28;94995;-58
2022/05/25 03:44:39;;;;;;;4.95;4.10;;;17.30;72.30;;;;;;4978001;28;95147;-59
2022/05/25 03:47:12;;;;;;;5.80;3.97;;;17.30;72.30;;;;;;4976989;28;95847;-59
2022/05/25 03:49:45;;;;;;;4.60;3.95;;;17.40;72.30;;;;;;4960481;28;95664;-60
2022/05/25 03:52:24;;;;;;;5.13;3.88;;;17.40;72.30;;;;;;4978541;28;94958;-61
2022/05/25 03:54:58;;;;;;;5.10;4.55;;;17.40;72.80;;;;;;4979301;28;94922;-59
2022/05/25 03:57:33;;;;;;;3.95;3.42;;;17.40;72.10;;;;;;4978184;28;96862;-59
2022/05/25 04:00:06;;;;;;;4.47;3.75;;;17.40;71.90;;;;;;4959997;28;95180;-57
2022/05/25 04:02:38;;;;;;;4.20;3.53;;;17.50;71.70;;;;;;4977175;28;95077;-60
2022/05/25 04:05:12;;;;;;;4.05;3.47;;;17.50;71.60;;;;;;4960593;28;95373;-59
2022/05/25 04:07:47;;;;;;;4.60;3.58;;;17.60;71.50;;;;;;4978061;28;96210;-61
2022/05/25 04:10:21;;;;;;;3.70;3.28;;;17.60;71.50;;;;;;4977312;28;95152;-58
2022/05/25 04:12:55;;;;;;;3.78;3.47;;;17.60;71.60;;;;;;4977577;28;94952;-59
2022/05/25 04:15:32;;;;;;;4.70;3.58;;;17.70;71.60;;;;;;4960872;28;95278;-59
2022/05/25 04:18:05;;;;;;;4.82;3.65;;;17.60;71.70;;;;;;4977330;28;96043;-61
2022/05/25 04:20:39;;;;;;;4.18;3.72;;;17.70;71.70;;;;;;4976979;28;95394;-61
2022/05/25 04:23:13;;;;;;;3.28;2.97;;;17.70;71.90;;;;;;4978648;28;94911;-61
2022/05/25 04:25:44;;;;;;;4.00;3.20;;;17.70;71.60;;;;;;4963760;28;95055;-61
2022/05/25 04:28:16;;;;;;;4.03;3.35;;;17.70;71.40;;;;;;4980827;28;96191;-61
2022/05/25 04:30:49;;;;;;;3.78;3.38;;;17.80;71.50;;;;;;4980615;28;95738;-60
2022/05/25 04:33:20;;;;;;;5.22;2.88;;;17.80;71.20;;;;;;4981338;28;95073;-58
2022/05/25 04:35:51;;;;;;;2.85;2.47;;;17.80;71.00;;;;;;4981174;28;95106;-59
2022/05/25 04:38:23;;;;;;;2.95;2.53;;;17.90;70.40;;;;;;4980268;28;96484;-59
2022/05/25 04:40:57;;;;;;;2.60;2.40;;;18.00;70.10;;;;;;4980467;28;95815;-59
2022/05/25 04:43:30;;;;;;;3.92;2.75;;;18.00;70.00;;;;;;4980891;28;94951;-59
2022/05/25 04:46:10;;;;;;;3.28;2.90;;;18.10;70.10;;;;;;4981558;28;95280;-59
2022/05/25 04:48:44;;;;;;;4.40;2.80;;;18.20;69.70;;;;;;4964013;28;96146;-61
2022/05/25 04:51:18;;;;;;;4.22;3.08;;;18.20;69.90;;;;;;4980937;28;95258;-59
2022/05/25 04:53:56;;;;;;;3.15;2.72;;;18.20;69.80;;;;;;4981830;28;94951;-61
2022/05/25 04:59:19;;;;;;;3.53;2.55;;;18.40;70.00;;;;;;4981123;28;95206;-60
2022/05/25 05:01:51;;;;;;;3.03;2.67;;;18.40;70.20;;;;;;4978474;28;95831;-60
2022/05/25 05:04:22;;;;;;;4.25;3.10;;;18.50;70.00;;;;;;4964021;28;95125;-60
2022/05/25 05:06:54;;;;;;;4.13;2.78;;;18.50;71.10;;;;;;4980695;28;95212;-60
2022/05/25 05:09:34;;;;;;;3.92;3.00;;;18.60;70.50;;;;;;4962802;28;95927;-60
2022/05/25 05:12:06;;;;;;;3.08;2.38;;;18.50;70.80;;;;;;4980422;28;95894;-60
2022/05/25 05:14:42;;;;;;;3.40;2.33;;;18.60;70.30;;;;;;4981144;28;94956;-60
2022/05/25 05:17:15;;;;;;;3.25;2.42;;;18.70;70.30;;;;;;4979529;28;95380;-60
2022/05/25 05:20:04;;;;;;;4.75;3.22;;;18.70;70.40;;;;;;4961835;28;96238;-61
2022/05/25 05:22:36;;;;;;;3.20;2.67;;;18.80;70.00;;;;;;4980043;28;95770;-60
2022/05/25 05:25:08;;;;;;;5.05;2.65;;;18.80;69.70;;;;;;4978905;28;94936;-60
2022/05/25 05:27:40;;;;;;;6.60;3.17;;;18.80;70.00;;;;;;4980061;28;95031;-59
2022/05/25 05:30:15;;;;;;;4.35;2.38;;;18.80;70.60;;;;;;4962471;28;96973;-60
2022/05/25 05:32:48;;;;;;;4.15;2.80;;;18.80;70.60;;;;;;4978339;28;95241;-60
2022/05/25 05:35:19;;;;;;;3.45;2.67;;;18.80;70.40;;;;;;4978940;28;94928;-59
2022/05/25 05:37:55;;;;;;;4.72;2.88;;;18.80;70.50;;;;;;4980039;28;95141;-60
2022/05/25 05:40:29;;;;;;;3.20;2.55;;;18.80;70.50;;;;;;4978976;28;96024;-60
2022/05/25 05:43:03;;;;;;;5.88;2.38;;;18.80;70.50;;;;;;4978919;28;95508;-60
2022/05/25 05:45:41;;;;;;;3.72;2.55;;;18.80;70.60;;;;;;4980341;28;95031;-60
2022/05/25 05:48:15;;;;;;;5.25;2.92;;;18.70;70.60;;;;;;4979830;28;95238;-60
2022/05/25 05:50:54;;;;;;;3.97;2.75;;;18.70;70.60;;;;;;4979759;28;96013;-60
2022/05/25 05:53:27;;;;;;;3.97;2.13;;;18.70;70.60;;;;;;4979815;28;95262;-61
2022/05/25 05:56:02;;;;;;;4.18;1.88;;;18.70;70.40;;;;;;4980748;28;95091;-60
2022/05/25 05:58:34;;;;;;;3.85;2.47;;;18.70;69.00;;;;;;4980492;28;95035;-60
2022/05/25 06:01:05;;;;;;;5.00;2.20;;;18.60;70.00;;;;;;4962735;28;95846;-60
2022/05/25 06:03:38;;;;;;;5.30;2.15;;;18.60;70.20;;;;;;4979358;28;95833;-60
2022/05/25 06:06:10;;;;;;;3.42;1.92;;;18.60;70.30;;;;;;4979851;28;94941;-59
2022/05/25 06:08:46;;;;;;;2.72;2.00;;;18.50;70.10;;;;;;4980325;28;95098;-44
2022/05/25 06:11:20;;;;;;;2.70;2.00;;;18.50;70.20;;;;;;4979386;28;96404;-52
2022/05/25 06:13:53;;;;;;;2.92;2.17;;;18.50;70.30;;;;;;4978842;28;95279;-59
2022/05/25 06:19:26;;;;;;;3.08;1.85;;;18.50;70.40;;;;;;4961228;28;95342;-59
2022/05/25 06:22:01;;;;;;;2.03;1.70;;;18.50;70.30;;;;;;4978339;28;96450;-60
2022/05/25 06:24:40;;;;;;;4.93;1.98;;;18.50;70.10;;;;;;4978870;28;95180;-59
2022/05/25 06:27:13;;;;;;;2.65;1.77;;;18.50;70.30;;;;;;4979116;28;94943;-57
2022/05/25 06:29:49;;;;;;;1.95;1.60;;;18.50;70.00;;;;;;4979020;28;95204;-58
2022/05/25 06:32:25;;;;;;;1.65;1.50;;;18.50;69.80;;;;;;4977096;28;96058;-56
2022/05/25 06:34:57;;;;;;;1.65;1.55;;;18.50;70.00;;;;;;4978820;28;95206;-55
2022/05/25 06:37:30;;;;;;;3.33;1.73;;;18.50;70.10;;;;;;4961332;28;94982;-56
2022/05/25 06:40:04;;;;;;;1.90;1.48;;;18.50;69.70;;;;;;4979108;28;95149;-57
2022/05/25 06:42:37;;;;;;;4.07;1.25;;;18.50;69.70;;;;;;4978586;28;96391;-58
2022/05/25 06:45:12;;;;;;;2.53;1.58;;;18.50;69.60;;;;;;4978098;28;95471;-57
2022/05/25 06:47:46;;;;;;;2.65;1.70;;;18.40;69.60;;;;;;4978578;28;95454;-59
2022/05/25 06:50:18;;;;;;;2.85;1.20;;;18.40;69.60;;;;;;4979923;28;95166;-55
2022/05/25 06:52:53;;;;;;;2.28;1.13;;;18.40;69.70;;;;;;4979444;28;95849;-57
2022/05/25 06:55:25;;;;;;;1.65;1.17;;;18.40;69.60;;;;;;4979393;28;95356;-57
2022/05/25 06:57:57;;;;;;;2.33;1.35;;;18.40;69.60;;;;;;4979580;28;94930;-57
2022/05/25 07:00:29;;;;;;;2.13;1.45;;;18.40;69.40;;;;;;4978964;28;95031;-55
2022/05/25 07:03:05;;;;;;;2.10;1.42;;;18.40;69.50;;;;;;4978890;28;95826;-56
2022/05/25 07:05:37;;;;;;;2.10;1.58;;;18.40;69.20;;;;;;4978773;28;95377;-56
2022/05/25 07:08:10;;;;;;;2.38;1.15;;;18.40;69.10;;;;;;4960346;28;95060;-57
2022/05/25 07:10:45;;;;;;;3.15;1.60;;;18.40;68.90;;;;;;4978383;28;95184;-57
2022/05/25 07:13:18;;;;;;;3.45;2.03;;;18.40;68.90;;;;;;4978080;28;96483;-57
2022/05/25 07:15:57;;;;;;;2.90;2.10;;;18.30;68.90;;;;;;4977948;28;95249;-57
2022/05/25 07:18:29;;;;;;;4.65;2.28;;;18.30;69.00;;;;;;4977141;28;94941;-59
2022/05/25 07:21:06;;;;;;;2.47;1.75;;;18.30;69.90;;;;;;4978080;28;95188;-59
2022/05/25 07:23:41;;;;;;;2.22;1.67;;;18.40;70.40;;;;;;4978263;28;95866;-58
2022/05/25 07:26:13;;;;;;;4.30;1.90;;;18.40;70.50;;;;;;4977696;28;95815;-59
2022/05/25 07:28:46;;;;;;;3.55;2.05;;;18.40;70.60;;;;;;4978156;28;94988;-60
2022/05/25 07:31:22;;;;;;;3.38;2.05;;;18.40;68.80;;;;;;4978368;28;95193;-59
2022/05/25 07:34:11;;;;;;;2.70;1.90;;;18.40;70.80;;;;;;4977747;28;95864;-60
2022/05/25 07:36:50;;;;;;;3.90;2.60;;;18.40;70.90;;;;;;4977618;28;95359;-60
2022/05/25 07:39:29;;;;;;;2.50;2.30;;;18.40;71.00;;;;;;4977914;28;94952;-59
2022/05/25 07:42:03;;;;;;;2.30;2.03;;;18.40;71.10;;;;;;4978179;28;95232;-58
2022/05/25 07:44:49;;;;;;;2.40;2.20;;;18.40;71.30;;;;;;4977917;28;95953;-59
2022/05/25 07:47:21;;;;;;;2.65;2.13;;;18.40;71.30;;;;;;4978023;28;95916;-59
2022/05/25 07:49:59;;;;;;;5.63;3.15;;;18.40;71.30;;;;;;4961697;28;95046;-59
2022/05/25 07:52:35;;;;;;;2.58;2.38;;;18.40;71.40;;;;;;4979491;28;94817;-60
2022/05/25 07:55:13;;;;;;;4.10;2.50;;;18.40;71.40;;;;;;4979179;28;95282;-56
2022/05/25 07:57:45;;;;;;;3.25;2.72;;;18.50;71.40;;;;;;4977694;28;95285;-56
2022/05/25 08:00:19;;;;;;;4.25;2.88;;;18.50;71.60;;;;;;4978464;28;94932;-57
2022/05/25 08:05:44;;;;;;;2.97;2.42;;;18.50;71.50;;;;;;4977769;28;96499;-58
2022/05/25 08:08:24;;;;;;;3.15;2.78;;;18.50;71.60;;;;;;4977529;28;95888;-57
2022/05/25 08:11:06;;;;;;;5.50;3.50;;;18.50;71.60;;;;;;4977535;28;94991;-57
2022/05/25 08:13:43;;;;;;;3.70;2.95;;;18.50;71.60;;;;;;4977906;28;95152;-58
2022/05/25 08:16:17;;;;;;;5.03;3.25;;;18.50;72.30;;;;;;4977228;28;96406;-59
2022/05/25 08:18:50;;;;;;;3.95;3.03;;;18.50;71.70;;;;;;4977357;28;95826;-59
2022/05/25 08:21:22;;;;;;;4.90;3.10;;;18.50;71.70;;;;;;4960126;28;95132;-58
2022/05/25 08:24:14;;;;;;;;;;;18.50;71.80;;;;;;4978196;28;95146;-59
2022/05/25 08:26:48;;;;;;;4.30;2.92;;;18.50;71.80;;;;;;4978500;28;95801;-60
2022/05/25 08:29:21;;;;;;;5.00;3.50;;;18.50;71.90;;;;;;4977244;28;95210;-60
2022/05/25 08:31:55;;;;;;;3.83;3.40;;;18.50;71.90;;;;;;4975553;28;95124;-59
2022/05/25 08:34:27;;;;;;;4.05;3.30;;;18.50;72.00;;;;;;4960256;28;95057;-58
2022/05/25 08:36:58;;;;;;;4.28;3.42;;;18.40;72.10;;;;;;4977582;28;95906;-58
2022/05/25 08:39:29;;;;;;;;;;;18.40;72.20;;;;;;4977507;28;95932;-58
2022/05/25 08:42:06;;;;;;;4.35;3.08;;;18.50;72.20;;;;;;4961153;28;95077;-58
2022/05/25 08:44:41;;;;;;;5.47;4.03;;;18.50;72.10;;;;;;4977719;28;95137;-58
2022/05/25 08:47:17;;;;;;;4.45;3.58;;;18.50;72.10;;;;;;4959471;28;96570;-59
2022/05/25 08:49:51;;;;;;;4.95;3.40;;;18.50;72.10;;;;;;4977964;28;95399;-59
2022/05/25 08:52:42;;;;;;;4.57;3.75;;;18.60;72.10;;;;;;4977800;28;94963;-56
2022/05/25 08:55:27;;;;;;;5.88;3.78;;;18.50;72.10;;;;;;4978100;28;95157;-58
2022/05/25 08:58:05;;;;;;;5.05;4.10;;;18.60;72.20;;;;;;4977540;28;96445;-58
2022/05/25 09:00:36;;;;;;;5.20;4.22;;;18.50;72.30;;;;;;4976908;28;95265;-55
2022/05/25 09:03:17;;;;;;;7.05;3.72;;;18.50;72.30;;;;;;4977624;28;94898;-58
2022/05/25 09:06:23;;;;;;;4.00;3.50;;;18.40;72.40;;;;;;4977708;28;95102;-59
2022/05/25 09:08:57;;;;;;;6.28;4.30;;;18.40;72.50;;;;;;4948951;28;96090;-56
2022/05/25 09:12:04;;;;;;;4.57;4.07;;;18.40;72.50;;;;;;4979448;28;95725;-56
2022/05/25 09:14:46;;;;;;;5.45;4.30;;;18.40;72.50;;;;;;4979906;28;94972;-54
2022/05/25 09:17:28;;;;;;;5.40;4.90;;;18.40;72.50;;;;;;4979049;28;95200;-54
2022/05/25 09:20:01;;;;;;;5.10;4.60;;;18.30;72.50;;;;;;4979372;28;95816;-50
2022/05/25 09:22:34;;;;;;;5.40;4.53;;;18.20;72.50;;;;;;4979669;28;95408;-53
2022/05/25 09:25:09;;;;;;;6.68;4.85;;;18.20;72.60;;;;;;4980073;28;94939;-54
2022/05/25 09:27:57;;;;;;;6.97;4.93;;;18.20;70.70;;;;;;4980383;28;95299;-52
2022/05/25 09:30:33;;;;;;;5.07;4.55;;;18.20;72.70;;;;;;4961635;28;98142;-53
2022/05/25 09:33:13;;;;;;;8.32;5.03;;;18.10;72.70;;;;;;4979515;28;95298;-50
2022/05/25 09:36:17;;;;;;;8.63;4.57;;;18.20;72.80;;;;;;4978536;28;94979;-53
2022/05/25 09:39:03;;;;;;;6.95;4.57;;;18.10;72.70;;;;;;4977703;28;95484;-53
2022/05/25 09:41:35;;;;;;;7.90;5.45;;;18.10;72.70;;;;;;4979430;28;96437;-53
2022/05/25 09:44:10;;;;;;;6.57;5.22;;;18.10;73.30;;;;;;4979745;28;95244;-53
2022/05/25 09:46:50;;;;;;;6.45;5.13;;;18.10;72.70;;;;;;4980845;28;94992;-51
2022/05/25 09:49:38;;;;;;;6.93;5.72;;;18.10;72.70;;;;;;4980582;28;94694;-54
2022/05/25 09:52:41;;;;;;;6.57;5.40;;;18.10;72.80;;;;;;4980411;28;95835;-56
2022/05/25 09:55:47;;;;;;;5.32;4.82;;;18.10;72.90;;;;;;4979893;28;95805;-56
2022/05/25 09:58:32;;;;;;;7.43;5.68;;;18.10;72.80;;;;;;4973878;28;95007;-55
2022/05/25 10:01:27;;;;;;;9.02;6.07;;;18.10;72.90;;;;;;4962061;28;95365;-58
2022/05/25 10:04:01;;;;;;;6.72;5.32;;;18.10;72.80;;;;;;4958405;28;95328;-57
2022/05/25 10:06:48;;;;;;;8.00;5.35;;;18.00;72.80;;;;;;4979645;28;95716;-54
2022/05/25 10:09:25;;;;;;;6.57;5.68;;;18.10;72.90;;;;;;4980076;28;94916;-55
2022/05/25 10:12:01;;;;;;;7.10;5.93;;;18.00;72.80;;;;;;4979652;28;95201;-54
2022/05/25 10:14:40;;;;;;;8.25;5.80;;;18.00;73.40;;;;;;4978949;28;95882;-57
2022/05/25 10:17:29;;;;;;;8.02;6.40;;;18.00;72.90;;;;;;4978231;28;95299;-57
2022/05/25 10:20:04;;;;;;;5.93;5.32;;;18.00;72.90;;;;;;4979075;28;95152;-54
2022/05/25 10:22:46;;;;;;;8.02;6.70;;;18.00;73.00;;;;;;4979333;28;95237;-50
2022/05/25 10:25:29;;;;;;;6.65;5.78;;;18.00;73.00;;;;;;4961548;28;96163;-50
2022/05/25 10:28:05;;;;;;;7.82;6.25;;;18.00;72.90;;;;;;4978539;28;95236;-54
2022/05/25 10:36:48;;;;;;;8.05;5.65;;;17.80;73.40;;;;;;4960939;28;95797;-53
2022/05/25 10:39:30;;;;;;;8.15;5.70;;;17.80;73.60;;;;;;4978550;28;95249;-54
2022/05/25 10:42:26;;;;;;;7.70;5.57;;;17.70;73.60;;;;;;4960914;28;95695;-52
2022/05/25 10:45:21;;;;;;;8.30;6.55;;;17.80;73.70;;;;;;4961820;28;95170;-53
2022/05/25 10:48:21;;;;;;;7.68;5.75;;;17.70;73.80;;;;;;4962013;28;96028;-52
2022/05/25 10:51:25;;;;;;;7.32;5.28;;;17.60;73.80;;;;;;4978955;28;95263;-57
2022/05/25 10:57:19;;;;;;;7.75;6.53;;;17.70;73.80;;;;;;4979916;28;95157;-52
2022/05/25 11:00:14;;;;;;;7.50;6.05;;;17.60;73.80;;;;;;4978585;28;96430;-52
2022/05/25 11:03:21;;;;;;;7.85;6.05;;;17.60;73.80;;;;;;4977435;28;95851;-54
2022/05/25 11:06:20;;;;;;;7.05;5.70;;;17.60;73.90;;;;;;4979422;28;94912;-55
2022/05/25 11:09:26;;;;;;;7.85;5.60;;;17.50;73.90;;;;;;4978639;28;95117;-51
2022/05/25 11:12:08;;;;;;;7.45;6.43;;;17.50;73.90;;;;;;4978161;28;95860;-53
2022/05/25 11:14:53;;;;;;;6.32;5.40;;;17.50;73.90;;;;;;4977878;28;95829;-49
2022/05/25 11:17:47;;;;;;;7.32;5.45;;;17.50;73.90;;;;;;4960595;28;95004;-51
2022/05/25 11:20:26;;;;;;;6.50;5.45;;;17.50;74.00;;;;;;4978038;28;95184;-55
2022/05/25 11:23:19;;;;;;;7.97;5.57;;;17.50;73.90;;;;;;4978138;28;95812;-50
2022/05/25 11:26:03;;;;;;;6.72;5.93;;;17.50;73.90;;;;;;4959851;28;95951;-53
2022/05/25 11:29:21;;;;;;;9.32;5.90;;;17.40;73.90;;;;;;4978460;28;95003;-51
2022/05/25 11:32:03;;;;;;;7.60;5.88;;;17.40;71.80;;;;;;4977174;28;95184;-53
2022/05/25 11:35:11;;;;;;;5.75;5.18;;;17.40;73.90;;;;;;4978021;28;94908;-52
2022/05/25 11:38:07;;;;;;;7.70;6.10;;;17.40;73.80;;;;;;4959626;28;95580;-55
2022/05/25 11:41:15;;;;;;;6.47;5.82;;;17.50;73.80;;;;;;4961122;28;95009;-50
2022/05/25 11:44:09;;;;;;;8.10;6.30;;;17.50;71.70;;;;;;4978096;28;95218;-51
2022/05/25 11:46:41;;;;;;;5.55;5.00;;;17.50;71.70;;;;;;4977280;28;95815;-50
2022/05/25 11:49:43;;;;;;;7.40;6.30;;;17.50;73.70;;;;;;4978697;28;95283;-54
2022/05/25 11:52:35;;;;;;;6.57;5.55;;;17.60;73.60;;;;;;4978715;28;94920;-53
2022/05/25 11:55:20;;;;;;;7.28;5.75;;;17.60;73.50;;;;;;4979208;28;95174;-55
2022/05/25 11:57:58;;;;;;;7.32;5.60;;;17.60;73.40;;;;;;4978356;28;95858;-50
2022/05/25 12:00:56;;;;;;;6.97;6.15;;;17.60;73.30;;;;;;4977675;28;95274;-48
2022/05/25 12:03:33;;;;;;;7.90;6.43;;;17.70;73.20;;;;;;4978331;28;94927;-54
2022/05/25 12:06:30;;;;;;;7.65;6.75;;;17.70;73.10;;;;;;4978473;28;95166;-53
2022/05/25 12:09:03;;;;;;;9.57;7.03;;;17.70;73.00;;;;;;4977902;28;95825;-55
2022/05/25 12:12:03;;;;;;;8.40;6.60;;;17.70;72.90;;;;;;4960454;28;95613;-54
2022/05/25 12:15:19;;;;;;;6.85;6.15;;;17.70;72.90;;;;;;4960018;28;94977;-54
2022/05/25 12:18:23;;;;;;;7.47;6.18;;;17.70;72.80;;;;;;4954451;28;95582;-52
2022/05/25 12:21:25;;;;;;;7.78;6.25;;;17.70;73.30;;;;;;4956818;28;96070;-55
2022/05/25 12:24:03;;;;;;;8.80;6.38;;;17.70;72.60;;;;;;4955210;28;95291;-50
2022/05/25 12:26:39;;;;;;;8.55;7.20;;;17.80;72.50;;;;;;4940545;28;95160;-51
2022/05/25 12:29:33;;;;;;;8.85;6.82;;;17.80;72.50;;;;;;4957946;28;95187;-54
2022/05/25 12:32:08;;;;;;;8.73;6.63;;;17.80;72.30;;;;;;4982798;28;96101;-54
2022/05/25 12:34:43;;;;;;;9.13;7.47;;;17.60;72.20;;;;;;4996987;28;95800;-49
2022/05/25 12:37:24;;;;;;;8.38;6.95;;;17.60;72.30;;;;;;4997199;28;95115;-54
2022/05/25 12:39:59;;;;;;;6.30;5.70;;;17.60;72.50;;;;;;4979500;28;95490;-51
2022/05/25 12:42:32;;;;;;;10.35;6.97;;;17.60;72.40;;;;;;4996794;28;96059;-53
2022/05/25 12:51:41;;;;;;;9.27;7.40;;;17.50;72.40;;;;;;5001418;28;95198;-53
2022/05/25 12:54:32;;;;;;;10.88;8.00;;;17.50;72.40;;;;;;5000869;28;95823;-53
2022/05/25 12:57:12;;;;;;;9.20;7.28;;;17.50;72.40;;;;;;5000662;28;95418;-50
2022/05/25 12:59:46;;;;;;;9.27;7.30;;;17.40;72.40;;;;;;5000698;28;95106;-50
2022/05/25 13:02:26;;;;;;;8.35;6.43;;;17.40;72.30;;;;;;4999625;28;95139;-52
2022/05/25 13:05:02;;;;;;;8.85;7.95;;;17.40;72.40;;;;;;4983789;28;95857;-50
2022/05/25 13:07:46;;;;;;;11.15;7.97;;;17.30;72.40;;;;;;4981840;28;97238;-48
2022/05/25 13:10:19;;;;;;;8.00;6.97;;;17.30;72.50;;;;;;4982575;28;94947;-50
2022/05/25 13:12:56;;;;;;;9.10;7.35;;;17.30;72.50;;;;;;5000372;28;95161;-49
2022/05/25 13:15:42;;;;;;;8.82;7.55;;;17.30;72.50;;;;;;4999972;28;96051;-52
2022/05/25 13:18:46;;;;;;;8.75;7.80;;;17.20;72.50;;;;;;5000176;28;95025;-49
2022/05/25 13:21:39;;;;;;;11.63;8.20;;;17.20;72.50;;;;;;4999432;28;94962;-51
2022/05/25 13:24:28;;;;;;;9.63;7.60;;;17.20;72.60;;;;;;4982972;28;95265;-52
2022/05/25 13:27:21;;;;;;;9.77;8.20;;;17.20;72.60;;;;;;4999729;28;95782;-48
2022/05/25 13:30:07;;;;;;;8.65;7.70;;;17.20;72.70;;;;;;4999948;28;95307;-50
2022/05/25 13:32:46;;;;;;;10.80;7.80;;;17.10;72.60;;;;;;4998732;28;94928;-49
2022/05/25 13:35:20;;;;;;;9.73;7.78;;;17.10;72.60;;;;;;4999811;28;95249;-52
2022/05/25 13:38:04;;;;;;;9.85;7.63;;;17.10;72.60;;;;;;4999464;28;95903;-50
2022/05/25 13:40:47;;;;;;;10.63;8.25;;;17.00;72.60;;;;;;4999552;28;95423;-51
2022/05/25 13:43:24;;;;;;;9.13;7.78;;;17.10;72.70;;;;;;4998564;28;94973;-49
2022/05/25 13:45:56;;;;;;;11.00;8.80;;;17.00;72.70;;;;;;5000300;28;95157;-48
2022/05/25 13:48:28;;;;;;;9.15;7.82;;;17.00;72.70;;;;;;4999888;28;95897;-51
2022/05/25 13:51:01;;;;;;;9.27;8.00;;;17.00;72.70;;;;;;5000156;28;95236;-54
2022/05/25 13:53:36;;;;;;;11.65;8.10;;;17.00;72.70;;;;;;5000192;28;94906;-51
2022/05/25 13:56:14;;;;;;;10.10;8.18;;;16.90;72.80;;;;;;4999864;28;95163;-51
2022/05/25 13:58:50;;;;;;;10.32;8.07;;;16.90;72.90;;;;;;4999561;28;96012;-50
2022/05/25 14:01:23;;;;;;;11.45;8.43;;;16.90;72.80;;;;;;4998796;28;95457;-51
2022/05/25 14:04:02;;;;;;;11.18;8.80;;;16.90;72.80;;;;;;4999829;28;94953;-50
2022/05/25 14:06:42;;;;;;;10.73;8.10;;;16.80;72.80;;;;;;5000059;28;95166;-48
2022/05/25 14:12:16;;;;;;;11.38;8.68;;;16.80;72.80;;;;;;4998976;28;95461;-47
2022/05/25 14:14:56;;;;;;;11.73;9.38;;;16.80;72.80;;;;;;4999151;28;95071;-49
2022/05/25 14:17:30;;;;;;;9.55;8.27;;;16.80;72.90;;;;;;4997171;28;95159;-48
2022/05/25 14:20:05;;;;;;;9.32;8.25;;;16.80;72.90;;;;;;4998637;28;95917;-48
2022/05/25 14:22:40;;;;;;;9.45;8.40;;;16.70;72.90;;;;;;4998818;28;95188;-48
2022/05/25 14:25:17;;;;;;;12.63;8.98;;;16.70;73.00;;;;;;4998949;28;94919;-49